createdAt,value
2019-05-11T00:01:10.059Z,16.30
2019-05-11T00:03:39.950Z,17.13
2019-05-11T00:06:09.837Z,19.20
2019-05-11T00:08:39.708Z,17.20
2019-05-11T00:11:09.574Z,18.17
2019-05-11T00:13:39.472Z,18.83
2019-05-11T00:16:09.388Z,17.37
2019-05-11T00:18:39.285Z,17.80
2019-05-11T00:21:09.140Z,16.50
2019-05-11T00:23:39.259Z,18.20
2019-05-11T00:26:09.193Z,17.67
2019-05-11T00:28:39.519Z,17.40
2019-05-11T00:31:09.362Z,19.30
2019-05-11T00:33:39.211Z,16.23
2019-05-11T00:36:09.749Z,17.33
2019-05-11T00:38:39.902Z,16.53
2019-05-11T00:41:09.807Z,17.90
2019-05-11T00:43:39.746Z,16.50
2019-05-11T00:46:09.861Z,17.20
2019-05-11T00:48:39.847Z,18.93
2019-05-11T00:51:09.705Z,16.17
2019-05-11T00:53:39.581Z,15.87
2019-05-11T00:56:09.507Z,17.10
2019-05-11T00:58:39.690Z,17.70
2019-05-11T01:01:09.918Z,16.30
2019-05-11T01:03:39.777Z,16.97
2019-05-11T01:06:09.629Z,18.33
2019-05-11T01:08:39.513Z,17.67
2019-05-11T01:11:09.677Z,15.90
2019-05-11T01:13:39.850Z,17.07
2019-05-11T01:16:09.751Z,16.47
2019-05-11T01:18:39.965Z,19.27
2019-05-11T01:21:09.826Z,18.33
2019-05-11T01:23:39.865Z,18.00
2019-05-11T01:26:09.727Z,16.80
2019-05-11T01:28:39.898Z,18.70
2019-05-11T01:31:10.127Z,20.73
2019-05-11T01:33:40.648Z,20.23
2019-05-11T01:36:10.805Z,23.67
2019-05-11T01:38:40.646Z,25.23
2019-05-11T01:41:10.526Z,24.17
2019-05-11T01:43:40.410Z,26.00
2019-05-11T01:46:10.298Z,25.30
2019-05-11T01:48:40.739Z,28.40
2019-05-11T01:51:10.675Z,25.80
2019-05-11T01:53:40.529Z,26.13
2019-05-11T01:56:10.987Z,26.07
2019-05-11T01:58:40.831Z,28.63
2019-05-11T02:01:10.973Z,24.57
2019-05-11T02:03:40.835Z,24.93
2019-05-11T02:06:10.665Z,23.90
2019-05-11T02:08:40.551Z,23.67
2019-05-11T02:11:16.037Z,25.17
2019-05-11T02:13:42.741Z,21.93
2019-05-11T02:16:12.914Z,25.03
2019-05-11T02:18:43.091Z,22.63
2019-05-11T02:21:13.370Z,22.07
2019-05-11T02:23:43.242Z,18.73
2019-05-11T02:26:13.370Z,20.40
2019-05-11T02:28:43.235Z,20.43
2019-05-11T02:31:13.148Z,17.93
2019-05-11T02:33:43.568Z,17.67
2019-05-11T02:36:13.481Z,19.10
2019-05-11T02:38:43.319Z,17.50
2019-05-11T02:41:13.189Z,19.40
2019-05-11T02:43:43.119Z,17.27
2019-05-11T02:46:12.995Z,18.23
2019-05-11T02:48:42.939Z,18.30
2019-05-11T02:51:13.439Z,18.70
2019-05-11T02:53:45.454Z,17.50
2019-05-11T02:56:15.313Z,16.03
2019-05-11T02:58:45.164Z,16.87
2019-05-11T03:01:15.087Z,18.27
2019-05-11T03:03:45.252Z,15.60
2019-05-11T03:06:15.487Z,16.20
2019-05-11T03:08:45.693Z,16.23
2019-05-11T03:11:15.585Z,15.87
2019-05-11T03:13:45.553Z,14.00
2019-05-11T03:16:15.432Z,14.37
2019-05-11T03:18:45.343Z,15.03
2019-05-11T03:21:15.195Z,14.90
2019-05-11T03:23:45.056Z,13.57
2019-05-11T03:26:14.983Z,13.40
2019-05-11T03:28:44.851Z,14.43
2019-05-11T03:31:14.873Z,14.60
2019-05-11T03:33:45.260Z,14.00
2019-05-11T03:36:15.138Z,16.00
2019-05-11T03:38:45.426Z,14.27
2019-05-11T03:41:15.430Z,15.10
2019-05-11T03:43:45.293Z,14.37
2019-05-11T03:46:15.539Z,13.10
2019-05-11T03:48:45.397Z,13.43
2019-05-11T03:51:15.568Z,14.57
2019-05-11T03:53:45.463Z,15.13
2019-05-11T03:56:15.612Z,14.87
2019-05-11T03:58:45.462Z,14.43
2019-05-11T04:01:15.609Z,15.70
2019-05-11T04:03:45.471Z,14.47
2019-05-11T04:06:15.601Z,14.13
2019-05-11T04:08:45.428Z,12.53
2019-05-11T04:11:15.688Z,12.23
2019-05-11T04:13:45.881Z,12.03
2019-05-11T04:16:16.083Z,11.57
2019-05-11T04:18:46.007Z,12.00
2019-05-11T04:21:15.874Z,11.17
2019-05-11T04:23:45.850Z,11.33
2019-05-11T04:26:16.455Z,11.10
2019-05-11T04:28:46.308Z,10.27
2019-05-11T04:31:16.477Z,10.27
2019-05-11T04:33:46.627Z,10.07
2019-05-11T04:36:16.813Z,10.27
2019-05-11T04:38:46.654Z,9.90
2019-05-11T04:41:16.517Z,11.23
2019-05-11T04:43:46.397Z,10.60
2019-05-11T04:46:16.344Z,10.40
2019-05-11T04:48:46.232Z,10.30
2019-05-11T04:51:16.394Z,9.57
2019-05-11T04:53:46.278Z,10.20
2019-05-11T04:56:16.121Z,9.13
2019-05-11T04:58:46.496Z,8.53
2019-05-11T05:01:16.400Z,9.20
2019-05-11T05:03:47.655Z,8.37
2019-05-11T05:06:22.457Z,7.73
2019-05-11T05:08:49.557Z,7.83
2019-05-11T05:11:20.057Z,7.63
2019-05-11T05:13:53.411Z,7.33
2019-05-11T05:16:22.125Z,7.87
2019-05-11T05:18:52.306Z,8.13
2019-05-11T05:21:22.479Z,7.77
2019-05-11T05:23:53.369Z,7.30
2019-05-11T05:26:23.475Z,6.67
2019-05-11T05:28:53.638Z,7.40
2019-05-11T05:31:23.586Z,7.40
2019-05-11T05:33:54.253Z,7.17
2019-05-11T05:36:24.729Z,6.30
2019-05-11T05:38:54.709Z,6.80
2019-05-11T05:41:24.930Z,6.97
2019-05-11T05:43:54.833Z,7.10
2019-05-11T05:46:24.683Z,6.60
2019-05-11T05:48:54.542Z,7.13
2019-05-11T05:51:24.427Z,6.63
2019-05-11T05:53:54.926Z,7.73
2019-05-11T05:56:24.836Z,6.57
2019-05-11T05:58:54.979Z,6.23
2019-05-11T06:01:24.916Z,6.57
2019-05-11T06:03:55.076Z,6.20
2019-05-11T06:06:24.957Z,7.27
2019-05-11T06:08:54.837Z,6.27
2019-05-11T06:11:24.980Z,6.70
2019-05-11T06:13:54.953Z,6.83
2019-05-11T06:16:25.110Z,6.20
2019-05-11T06:18:55.644Z,5.93
2019-05-11T06:21:25.860Z,6.70
2019-05-11T06:23:55.822Z,6.90
2019-05-11T06:26:25.698Z,6.10
2019-05-11T06:28:55.915Z,7.60
2019-05-11T06:31:25.810Z,6.57
2019-05-11T06:33:55.676Z,8.00
2019-05-11T06:36:25.514Z,7.07
2019-05-11T06:38:55.457Z,7.03
2019-05-11T06:41:25.304Z,7.20
2019-05-11T06:44:01.863Z,11.13
2019-05-11T06:46:27.288Z,7.80
2019-05-11T06:48:57.208Z,8.97
2019-05-11T06:51:27.436Z,8.87
2019-05-11T06:53:57.626Z,7.57
2019-05-11T06:56:27.567Z,8.43
2019-05-11T06:58:57.527Z,8.30
2019-05-11T07:01:27.497Z,8.37
2019-05-11T07:03:57.404Z,7.13
2019-05-11T07:06:30.563Z,7.87
2019-05-11T07:08:58.851Z,8.50
2019-05-11T07:11:28.794Z,9.73
2019-05-11T07:13:59.284Z,8.03
2019-05-11T07:16:29.205Z,7.33
2019-05-11T07:18:59.383Z,8.20
2019-05-11T07:21:29.313Z,7.80
2019-05-11T07:23:59.198Z,8.60
2019-05-11T07:26:29.671Z,7.97
2019-05-11T07:28:59.536Z,7.53
2019-05-11T07:31:29.812Z,8.40
2019-05-11T07:33:59.657Z,7.90
2019-05-11T07:36:30.172Z,8.20
2019-05-11T07:38:59.997Z,8.73
2019-05-11T07:41:30.101Z,7.70
2019-05-11T07:44:00.313Z,8.80
2019-05-11T07:46:30.482Z,16.23
2019-05-11T07:49:00.599Z,19.20
2019-05-11T07:51:30.496Z,9.93
2019-05-11T07:54:00.397Z,8.23
2019-05-11T07:56:30.250Z,8.10
2019-05-11T07:59:00.116Z,10.57
2019-05-11T08:01:30.217Z,10.33
2019-05-11T08:04:00.452Z,11.10
2019-05-11T08:06:30.321Z,9.27
2019-05-11T08:09:00.238Z,9.60
2019-05-11T08:11:31.467Z,10.13
2019-05-11T08:14:01.649Z,9.67
2019-05-11T08:16:31.553Z,10.33
2019-05-11T08:19:01.427Z,10.10
2019-05-11T08:21:31.595Z,10.93
2019-05-11T08:24:01.437Z,11.80
2019-05-11T08:26:31.614Z,11.57
2019-05-11T08:29:01.471Z,13.30
2019-05-11T08:31:31.332Z,11.40
2019-05-11T08:34:01.493Z,12.90
2019-05-11T08:36:31.622Z,13.00
2019-05-11T08:39:02.125Z,12.70
2019-05-11T08:41:31.951Z,14.33
2019-05-11T08:44:01.842Z,13.40
2019-05-11T08:46:31.743Z,13.57
2019-05-11T08:49:01.616Z,15.40
2019-05-11T08:51:31.588Z,15.40
2019-05-11T08:54:01.495Z,16.77
2019-05-11T08:56:31.644Z,17.13
2019-05-11T08:59:01.516Z,16.93
2019-05-11T09:01:31.766Z,16.90
2019-05-11T09:04:01.968Z,16.80
2019-05-11T09:06:31.820Z,15.50
2019-05-11T09:09:01.696Z,16.17
2019-05-11T09:11:31.947Z,15.07
2019-05-11T09:14:02.308Z,14.70
2019-05-11T09:16:32.432Z,16.47
2019-05-11T09:19:02.298Z,13.93
2019-05-11T09:21:32.527Z,15.30
2019-05-11T09:24:02.743Z,13.90
2019-05-11T09:26:32.579Z,15.00
2019-05-11T09:29:02.468Z,14.67
2019-05-11T09:31:32.569Z,14.83
2019-05-11T09:34:02.529Z,16.37
2019-05-11T09:36:33.252Z,13.83
2019-05-11T09:39:03.078Z,13.50
2019-05-11T09:41:33.288Z,14.90
2019-05-11T09:44:03.142Z,15.53
2019-05-11T09:46:33.043Z,14.47
2019-05-11T09:49:03.239Z,14.40
2019-05-11T09:51:33.156Z,12.83
2019-05-11T09:54:03.366Z,12.00
2019-05-11T09:56:33.662Z,12.30
2019-05-11T09:59:03.920Z,10.60
2019-05-11T10:01:33.912Z,9.83
2019-05-11T10:04:03.812Z,8.97
2019-05-11T10:06:35.456Z,8.70
2019-05-11T10:09:08.163Z,7.93
2019-05-11T10:11:39.960Z,7.70
2019-05-11T10:14:10.360Z,8.80
2019-05-11T10:16:40.242Z,9.17
2019-05-11T10:19:10.130Z,8.77
2019-05-11T10:21:40.003Z,8.37
2019-05-11T10:24:10.243Z,9.27
2019-05-11T10:26:40.463Z,7.17
2019-05-11T10:29:10.292Z,8.47
2019-05-11T10:31:40.479Z,7.63
2019-05-11T10:34:10.877Z,7.43
2019-05-11T10:36:41.156Z,7.90
2019-05-11T10:39:11.174Z,7.43
2019-05-11T10:41:41.331Z,8.00
2019-05-11T10:44:11.873Z,8.37
2019-05-11T10:46:42.115Z,8.27
2019-05-11T10:49:11.752Z,7.80
2019-05-11T10:51:41.666Z,8.97
2019-05-11T10:54:12.168Z,8.50
2019-05-11T10:56:42.047Z,8.10
2019-05-11T10:59:15.213Z,8.27
2019-05-11T11:01:43.536Z,7.90
2019-05-11T11:04:13.468Z,10.03
2019-05-11T11:06:43.406Z,9.50
2019-05-11T11:09:13.591Z,8.90
2019-05-11T11:11:43.581Z,8.93
2019-05-11T11:14:13.495Z,8.67
2019-05-11T11:16:43.698Z,8.80
2019-05-11T11:19:13.582Z,8.97
2019-05-11T11:21:43.822Z,9.73
2019-05-11T11:24:13.707Z,8.40
2019-05-11T11:26:43.562Z,9.03
2019-05-11T11:29:13.408Z,8.80
2019-05-11T11:31:43.328Z,9.33
2019-05-11T11:34:13.542Z,9.57
2019-05-11T11:36:43.497Z,9.70
2019-05-11T11:39:13.394Z,8.90
2019-05-11T11:41:43.268Z,9.40
2019-05-11T11:44:13.479Z,8.27
2019-05-11T11:46:52.043Z,10.53
2019-05-11T11:49:18.196Z,8.43
2019-05-11T11:51:48.556Z,11.00
2019-05-11T11:54:18.588Z,9.90
2019-05-11T11:56:48.668Z,9.23
2019-05-11T11:59:18.655Z,12.67
2019-05-11T12:01:48.894Z,10.13
2019-05-11T12:04:18.971Z,9.67
2019-05-11T12:06:49.187Z,9.23
2019-05-11T12:09:19.442Z,9.37
2019-05-11T12:11:49.631Z,9.13
2019-05-11T12:14:19.833Z,9.40
2019-05-11T12:17:03.876Z,9.53
2019-05-11T12:19:21.281Z,9.70
2019-05-11T12:21:51.137Z,9.40
2019-05-11T12:24:20.994Z,10.13
2019-05-11T12:26:50.870Z,8.80
2019-05-11T12:29:20.809Z,10.10
2019-05-11T12:31:50.678Z,10.37
2019-05-11T12:34:20.877Z,11.80
2019-05-11T12:36:51.036Z,12.00
2019-05-11T12:39:20.928Z,11.90
2019-05-11T12:41:50.777Z,13.37
2019-05-11T12:44:20.653Z,13.57
2019-05-11T12:46:50.788Z,11.93
2019-05-11T12:49:20.671Z,13.10
2019-05-11T12:51:50.587Z,11.47
2019-05-11T12:54:20.450Z,11.57
2019-05-11T12:56:50.428Z,12.27
2019-05-11T12:59:20.250Z,12.00
2019-05-11T13:01:50.164Z,11.67
2019-05-11T13:04:20.443Z,12.43
2019-05-11T13:06:50.333Z,12.23
2019-05-11T13:09:20.192Z,13.07
2019-05-11T13:11:50.052Z,13.00
2019-05-11T13:14:19.969Z,12.10
2019-05-11T13:16:49.913Z,11.00
2019-05-11T13:19:20.007Z,11.90
2019-05-11T13:21:50.431Z,10.63
2019-05-11T13:24:20.825Z,13.03
2019-05-11T13:26:50.948Z,12.13
2019-05-11T13:29:21.205Z,9.77
2019-05-11T13:31:51.138Z,10.80
2019-05-11T13:34:21.295Z,11.63
2019-05-11T13:36:51.175Z,10.83
2019-05-11T13:39:22.065Z,10.93
2019-05-11T13:41:52.581Z,12.10
2019-05-11T13:44:22.438Z,10.43
2019-05-11T13:46:52.557Z,10.80
2019-05-11T13:49:22.521Z,10.30
2019-05-11T13:51:52.378Z,12.43
2019-05-11T13:54:22.262Z,12.33
2019-05-11T13:56:52.107Z,11.13
2019-05-11T13:59:22.009Z,10.97
2019-05-11T14:01:51.885Z,13.33
2019-05-11T14:04:21.771Z,11.63
2019-05-11T14:06:51.996Z,11.53
2019-05-11T14:09:21.839Z,12.47
2019-05-11T14:11:51.723Z,12.60
2019-05-11T14:14:21.597Z,10.80
2019-05-11T14:16:52.204Z,13.27
2019-05-11T14:19:22.120Z,11.87
2019-05-11T14:21:51.999Z,12.10
2019-05-11T14:24:22.473Z,12.70
2019-05-11T14:26:52.641Z,13.50
2019-05-11T14:29:22.485Z,12.23
2019-05-11T14:31:52.399Z,11.83
2019-05-11T14:34:22.358Z,12.30
2019-05-11T14:36:52.218Z,11.30
2019-05-11T14:39:22.418Z,12.60
2019-05-11T14:41:52.315Z,12.10
2019-05-11T14:44:22.139Z,10.70
2019-05-11T14:46:52.097Z,11.57
2019-05-11T14:49:22.071Z,10.50
2019-05-11T14:51:51.940Z,11.10
2019-05-11T14:54:22.085Z,11.40
2019-05-11T14:56:51.942Z,11.77
2019-05-11T14:59:21.872Z,10.37
2019-05-11T15:01:51.743Z,9.87
2019-05-11T15:04:21.955Z,9.87
2019-05-11T15:06:52.064Z,9.50
2019-05-11T15:09:21.998Z,9.77
2019-05-11T15:11:52.660Z,9.73
2019-05-11T15:14:22.923Z,10.57
2019-05-11T15:16:53.152Z,10.00
2019-05-11T15:19:23.011Z,10.50
2019-05-11T15:21:53.177Z,10.47
2019-05-11T15:24:23.010Z,9.00
2019-05-11T15:26:52.918Z,8.60
2019-05-11T15:29:22.773Z,8.47
2019-05-11T15:31:52.630Z,8.77
2019-05-11T15:34:22.486Z,9.00
2019-05-11T15:36:52.458Z,9.07
2019-05-11T15:39:22.841Z,8.60
2019-05-11T15:42:06.482Z,9.63
2019-05-11T15:44:24.300Z,11.63
2019-05-11T15:46:54.503Z,7.83
2019-05-11T15:49:24.361Z,9.40
2019-05-11T15:51:54.578Z,8.70
2019-05-11T15:54:24.788Z,9.10
2019-05-11T15:56:54.643Z,8.47
2019-05-11T15:59:24.525Z,8.00
2019-05-11T16:01:54.807Z,8.37
2019-05-11T16:04:24.665Z,7.83
2019-05-11T16:06:54.832Z,8.27
2019-05-11T16:09:24.733Z,8.10
2019-05-11T16:11:54.882Z,7.80
2019-05-11T16:14:27.974Z,9.63
2019-05-11T16:16:58.442Z,8.93
2019-05-11T16:19:28.452Z,9.80
2019-05-11T16:21:58.300Z,9.87
2019-05-11T16:24:28.154Z,9.17
2019-05-11T16:26:58.349Z,8.77
2019-05-11T16:29:28.336Z,9.13
2019-05-11T16:31:58.233Z,8.47
2019-05-11T16:34:28.118Z,8.50
2019-05-11T16:36:57.992Z,9.77
2019-05-11T16:39:28.104Z,8.07
2019-05-11T16:41:58.074Z,9.00
2019-05-11T16:44:27.989Z,8.50
2019-05-11T16:46:58.665Z,8.90
2019-05-11T16:49:32.233Z,8.70
2019-05-11T16:52:00.481Z,9.80
2019-05-11T16:54:30.329Z,10.43
2019-05-11T16:57:00.250Z,9.07
2019-05-11T16:59:30.109Z,8.50
2019-05-11T17:01:59.914Z,9.53
2019-05-11T17:04:31.230Z,8.73
2019-05-11T17:07:01.415Z,9.70
2019-05-11T17:09:31.568Z,11.17
2019-05-11T17:12:01.462Z,11.07
2019-05-11T17:14:31.592Z,9.50
2019-05-11T17:17:01.475Z,9.47
2019-05-11T17:19:42.967Z,10.57
2019-05-11T17:22:03.281Z,9.53
2019-05-11T17:24:33.479Z,9.20
2019-05-11T17:27:03.322Z,10.80
2019-05-11T17:29:33.161Z,8.50
2019-05-11T17:32:03.071Z,9.03
2019-05-11T17:34:33.231Z,9.10
2019-05-11T17:37:03.060Z,7.40
2019-05-11T17:39:32.928Z,7.87
2019-05-11T17:42:02.917Z,7.30
2019-05-11T17:44:32.823Z,7.70
2019-05-11T17:47:02.996Z,8.37
2019-05-11T17:49:33.459Z,7.30
2019-05-11T17:52:03.674Z,6.93
2019-05-11T17:54:34.057Z,7.00
2019-05-11T17:57:04.047Z,7.60
2019-05-11T17:59:34.375Z,7.40
2019-05-11T18:02:04.279Z,6.77
2019-05-11T18:04:34.129Z,8.30
2019-05-11T18:07:04.255Z,7.70
2019-05-11T18:09:34.175Z,8.33
2019-05-11T18:12:04.026Z,7.80
2019-05-11T18:14:36.251Z,8.80
2019-05-11T18:17:05.944Z,8.40
2019-05-11T18:19:35.768Z,8.17
2019-05-11T18:22:08.182Z,9.37
2019-05-11T18:24:38.291Z,9.57
2019-05-11T18:27:08.520Z,8.57
2019-05-11T18:29:38.363Z,10.17
2019-05-11T18:32:08.536Z,9.07
2019-05-11T18:34:38.371Z,9.90
2019-05-11T18:37:08.778Z,8.70
2019-05-11T18:39:38.714Z,9.97
2019-05-11T18:42:08.555Z,9.10
2019-05-11T18:44:38.396Z,9.40
2019-05-11T18:47:08.799Z,9.77
2019-05-11T18:49:39.188Z,8.73
2019-05-11T18:52:09.373Z,8.17
2019-05-11T18:54:39.530Z,7.57
2019-05-11T18:57:09.754Z,7.33
2019-05-11T18:59:39.587Z,7.90
2019-05-11T19:02:09.458Z,7.57
2019-05-11T19:04:39.582Z,8.13
2019-05-11T19:07:16.300Z,6.77
2019-05-11T19:09:41.591Z,7.10
2019-05-11T19:12:11.812Z,7.73
2019-05-11T19:14:42.260Z,7.43
2019-05-11T19:17:12.119Z,7.63
2019-05-11T19:19:42.251Z,7.43
2019-05-11T19:22:12.387Z,7.83
2019-05-11T19:24:42.593Z,8.07
2019-05-11T19:27:12.460Z,7.80
2019-05-11T19:29:42.880Z,8.33
2019-05-11T19:32:13.080Z,9.20
2019-05-11T19:34:43.471Z,7.50
2019-05-11T19:37:13.504Z,8.43
2019-05-11T19:39:43.414Z,8.00
2019-05-11T19:42:13.629Z,9.37
2019-05-11T19:44:43.748Z,9.60
2019-05-11T19:47:13.604Z,8.90
2019-05-11T19:49:43.492Z,8.30
2019-05-11T19:52:13.405Z,8.30
2019-05-11T19:54:43.282Z,7.77
2019-05-11T19:57:13.444Z,7.80
2019-05-11T19:59:43.404Z,7.67
2019-05-11T20:02:13.246Z,5.30
2019-05-11T20:04:43.419Z,6.70
2019-05-11T20:07:13.287Z,4.70
2019-05-11T20:09:43.391Z,6.37
2019-05-11T20:12:13.279Z,4.97
2019-05-11T20:14:43.131Z,4.87
2019-05-11T20:17:13.000Z,6.00
2019-05-11T20:19:42.854Z,4.87
2019-05-11T20:22:12.816Z,5.23
2019-05-11T20:24:42.661Z,4.70
2019-05-11T20:27:12.507Z,4.87
2019-05-11T20:29:42.412Z,3.97
2019-05-11T20:32:12.498Z,5.37
2019-05-11T20:34:42.431Z,4.97
2019-05-11T20:37:12.263Z,6.03
2019-05-11T20:39:42.354Z,4.80
2019-05-11T20:42:12.630Z,5.10
2019-05-11T20:44:42.641Z,6.00
2019-05-11T20:47:12.553Z,5.27
2019-05-11T20:49:42.779Z,5.70
2019-05-11T20:52:12.605Z,6.80
2019-05-11T20:54:42.987Z,5.30
2019-05-11T20:57:12.879Z,5.33
2019-05-11T20:59:43.162Z,4.30
2019-05-11T21:02:13.029Z,4.73
2019-05-11T21:04:42.906Z,4.30
2019-05-11T21:07:12.744Z,4.07
2019-05-11T21:09:42.624Z,3.80
2019-05-11T21:12:12.548Z,4.73
2019-05-11T21:14:42.826Z,3.87
2019-05-11T21:17:12.676Z,3.67
2019-05-11T21:19:42.888Z,4.00
2019-05-11T21:22:12.923Z,3.53
2019-05-11T21:24:42.764Z,2.80
2019-05-11T21:27:12.664Z,3.10
2019-05-11T21:29:42.573Z,3.63
2019-05-11T21:32:12.968Z,4.10
2019-05-11T21:34:42.784Z,3.20
2019-05-11T21:37:12.716Z,2.33
2019-05-11T21:39:42.914Z,2.70
2019-05-11T21:42:13.085Z,3.30
2019-05-11T21:44:42.907Z,4.27
2019-05-11T21:47:12.719Z,3.07
2019-05-11T21:49:42.915Z,2.57
2019-05-11T21:52:12.759Z,2.97
2019-05-11T21:54:42.603Z,2.20
2019-05-11T21:57:12.496Z,2.50
2019-05-11T21:59:42.339Z,2.57
2019-05-11T22:02:12.205Z,2.30
2019-05-11T22:04:42.070Z,2.00
2019-05-11T22:07:12.003Z,2.70
2019-05-11T22:09:42.011Z,2.60
2019-05-11T22:12:12.296Z,2.00
2019-05-11T22:14:42.726Z,2.80
2019-05-11T22:17:12.595Z,2.33
2019-05-11T22:19:42.737Z,2.30
2019-05-11T22:22:22.332Z,2.67
2019-05-11T22:24:44.148Z,3.00
2019-05-11T22:27:14.006Z,2.20
2019-05-11T22:29:43.861Z,2.33
2019-05-11T22:32:13.705Z,2.97
2019-05-11T22:34:43.616Z,3.10
2019-05-11T22:37:13.504Z,2.07
2019-05-11T22:39:43.332Z,2.53
2019-05-11T22:42:13.289Z,2.97
2019-05-11T22:44:43.160Z,2.70
2019-05-11T22:47:13.401Z,1.90
2019-05-11T22:49:43.266Z,2.60
2019-05-11T22:52:13.355Z,2.70
2019-05-11T22:54:43.249Z,2.73
2019-05-11T22:57:13.394Z,2.83
2019-05-11T22:59:43.328Z,2.90
2019-05-11T23:02:13.478Z,3.00
2019-05-11T23:04:43.547Z,2.87
2019-05-11T23:07:13.829Z,2.97
2019-05-11T23:09:43.726Z,2.73
2019-05-11T23:12:13.879Z,2.77
2019-05-11T23:14:44.507Z,2.83
2019-05-11T23:17:14.357Z,2.37
2019-05-11T23:19:44.500Z,2.80
2019-05-11T23:22:14.375Z,3.17
2019-05-11T23:24:44.258Z,3.00
2019-05-11T23:27:14.119Z,2.53
2019-05-11T23:29:44.230Z,3.10
2019-05-11T23:32:14.119Z,2.77
2019-05-11T23:34:43.977Z,3.20
2019-05-11T23:37:14.060Z,3.47
2019-05-11T23:39:43.952Z,2.70
2019-05-11T23:42:13.810Z,3.00
2019-05-11T23:44:45.793Z,3.37
2019-05-11T23:47:15.264Z,3.30
2019-05-11T23:49:45.110Z,3.13
2019-05-11T23:52:14.960Z,2.83
2019-05-11T23:54:44.805Z,3.03
2019-05-11T23:57:14.690Z,2.80
2019-05-11T23:59:44.555Z,3.07
